Aérodrome :
LOGIN :

S'inscrire | Disclaimer

   EN    FR    IT 

 










Légende :    VFR   VFR Marginal   IFR   IFR Intensif   IFR Très Intensif
Visi : 
Plafond : 
>= 8 km
>= 3000ft
5 à 8 km
1000 à 3000 ft
1500m à 5 km
500 à 1000 ft
800 à 1500m
200 à 500 ft
< 800m
< 200 ft
Symboles :   Orages  Brouillard  Fortes neiges  Fortes précipitations  Vent > 20 kt
SIGMETs :   Divers  Orages  Givrage  Turbulence  Onde Orograph.  Cendres Volcan.






- Altitude de l'aérodrome : 154 ft
- Code IATA : SZZ


EPSC - Szczecin Goleniow

DERNIER METAR :
  • 211500Z 02011KT 350V070 9999 FEW042 06/M03 Q1024

METARs EXPIRÉS :
  • 211430Z 02010KT 340V070 9999 SCT044 07/M04 Q1024
  • 211400Z 36011KT 330V040 9999 SCT044 07/M04 Q1023
  • 211330Z 02012KT 340V060 9999 FEW046 07/M04 Q1023
  • 211300Z 03012KT 360V060 9999 SCT037 07/M04 Q1023
  • 211230Z 01011KT 320V030 9999 BKN035 07/M02 Q1023
  • 211200Z 02010KT 340V070 9999 SCT039 07/M02 Q1023
  • 211130Z 03008KT 350V080 9999 SCT033TCU 07/M02 Q1023
  • 211100Z 02009KT 340V040 9999 SCT032TCU BKN044 07/M01 Q1023
  • 211030Z 03008KT 330V110 9999 BKN022 07/M00 Q1023

TAF TAF EPSC
Valide du 21 à 12h jusqu'au 22 à 12h UTC


211130Z 2112/2212 02010KT 9999 SCT040
PROB40
TEMPO 2112/2116 03015G25KT SCT030TCU
TEMPO 2204/2212 -SHRASN BKN020CB
PROB40
TEMPO 2204/2208 3000 SHSNRA BKN007 BKN012CB



MET'MAP, la Météo Aéronautique d'un coup d'oeil ! - Copyright ORBIFLY Décembre 2007 - Disclaimer

ORBIFLY MET'MAP TEAM :

Programmation & Développement : Alexandra Zaïnal
Sur une idée originale de : Baudouin d'Aumeries
Soutien technique & logistique : Manuel Goepfert
Assistance : Marc-Olivier Méhu




SOURCES & CREDITS :

   NOAA